Time;durP1;ratioP1;P1;durP2;ratioP2;P2;SDS_P1;SDS_P2;PMS_P1;PMS_P2;Temp;Humidity;BMP_temperature;BMP_pressure;BME280_temperature;BME280_humidity;BME280_pressure;Samples;Min_cycle;Max_cycle;Signal;HPM_P1;HPM_P2
2023/01/24 00:00:48;;;;;;;17.40;12.38;;;;;;;1.82;88.60;103800.03;5034899;28;20498;-80
2023/01/24 00:03:15;;;;;;;18.80;12.20;;;;;;;1.84;89.07;103802.75;5045103;28;20032;-81
2023/01/24 00:05:42;;;;;;;17.83;12.05;;;;;;;1.86;88.67;103799.44;5025638;28;20408;-81
2023/01/24 00:08:09;;;;;;;17.35;12.15;;;;;;;1.81;88.21;103795.63;5034235;28;20048;-81
2023/01/24 00:10:36;;;;;;;19.63;12.38;;;;;;;1.82;88.58;103797.41;5034527;28;20108;-81
2023/01/24 00:13:02;;;;;;;16.90;11.93;;;;;;;1.81;88.59;103800.84;5036804;28;20033;-81
2023/01/24 00:15:27;;;;;;;19.80;13.32;;;;;;;1.84;88.71;103805.38;5032947;28;20033;-81
2023/01/24 00:17:53;;;;;;;17.38;12.40;;;;;;;1.83;89.23;103790.47;5048259;28;20075;-80
2023/01/24 00:20:18;;;;;;;17.42;12.48;;;;;;;1.84;88.78;103800.16;5040984;28;20051;-80
2023/01/24 00:22:44;;;;;;;18.77;12.95;;;;;;;1.82;88.82;103796.53;5034519;28;20463;-81
2023/01/24 00:25:09;;;;;;;16.92;12.77;;;;;;;1.84;89.24;103805.38;5035307;28;20029;-81
2023/01/24 00:27:35;;;;;;;20.90;13.45;;;;;;;1.81;89.08;103803.47;5035788;28;20054;-80
2023/01/24 00:30:05;;;;;;;17.52;12.45;;;;;;;1.81;89.26;103793.03;5019276;28;20082;-80
2023/01/24 00:32:31;;;;;;;20.23;13.82;;;;;;;1.82;89.20;103783.47;5032403;28;20476;-80
2023/01/24 00:34:57;;;;;;;17.95;12.82;;;;;;;1.80;89.09;103775.50;5034278;28;20109;-80
2023/01/24 00:37:23;;;;;;;20.35;13.82;;;;;;;1.83;89.23;103777.41;5030109;28;20037;-81
2023/01/24 00:39:49;;;;;;;19.98;13.27;;;;;;;1.84;89.44;103771.41;5039842;28;20041;-80
2023/01/24 00:42:14;;;;;;;17.80;12.73;;;;;;;1.82;88.96;103773.00;5014860;28;20041;-80
2023/01/24 00:44:41;;;;;;;19.30;13.77;;;;;;;1.83;88.83;103777.41;5023405;28;20476;-80
2023/01/24 00:47:08;;;;;;;19.92;13.88;;;;;;;1.79;89.05;103770.22;5030981;28;20518;-81
2023/01/24 00:49:33;;;;;;;17.90;12.55;;;;;;;1.79;89.37;103772.84;5020350;28;20174;-80
2023/01/24 00:51:59;;;;;;;17.90;12.75;;;;;;;1.81;88.97;103766.88;5031297;28;20045;-81
2023/01/24 00:54:24;;;;;;;21.95;14.38;;;;;;;1.81;89.22;103774.72;5045124;28;20047;-81
2023/01/24 00:56:50;;;;;;;19.38;12.88;;;;;;;1.81;89.39;103774.72;5041132;28;20033;-80
2023/01/24 00:59:15;;;;;;;22.52;14.05;;;;;;;1.80;88.60;103775.50;5038022;28;20037;-81
2023/01/24 01:01:42;;;;;;;19.25;13.73;;;;;;;1.81;88.63;103777.34;5032899;28;20040;-81
2023/01/24 01:04:09;;;;;;;18.35;12.77;;;;;;;1.80;89.17;103767.69;5031123;28;20060;-81
2023/01/24 01:06:35;;;;;;;22.10;13.35;;;;;;;1.79;89.08;103763.28;5048050;28;20389;-81
2023/01/24 01:09:00;;;;;;;22.25;14.90;;;;;;;1.79;89.42;103762.38;5058673;28;20051;-81
2023/01/24 01:11:26;;;;;;;18.98;13.32;;;;;;;1.79;89.31;103771.13;5043954;28;20465;-81
2023/01/24 01:13:54;;;;;;;20.48;13.27;;;;;;;1.72;89.15;103762.00;5041977;28;20087;-81
2023/01/24 01:16:21;;;;;;;20.02;12.45;;;;;;;1.74;88.66;103754.25;5048715;28;20406;-81
2023/01/24 01:18:47;;;;;;;16.95;12.85;;;;;;;1.76;88.58;103760.47;5049615;28;20044;-81
2023/01/24 01:21:15;;;;;;;17.05;10.85;;;;;;;1.73;89.32;103757.66;5043380;28;20438;-80
2023/01/24 01:23:41;;;;;;;16.55;11.85;;;;;;;1.72;88.66;103762.00;5042467;28;20503;-81
2023/01/24 01:26:09;;;;;;;21.80;12.07;;;;;;;1.73;88.39;103755.03;5046070;28;20025;-81
2023/01/24 01:28:35;;;;;;;18.05;12.30;;;;;;;1.72;88.32;103759.38;5044137;28;20053;-81
2023/01/24 01:31:01;;;;;;;16.70;11.20;;;;;;;1.72;88.78;103771.53;5044345;28;20086;-81
2023/01/24 01:33:26;;;;;;;18.67;12.13;;;;;;;1.71;88.78;103769.75;5003678;28;20112;-81
2023/01/24 01:35:52;;;;;;;19.05;11.88;;;;;;;1.69;88.73;103763.53;5033727;28;20628;-81
2023/01/24 01:38:19;;;;;;;19.30;11.73;;;;;;;1.70;88.48;103768.81;5032948;28;20113;-81
2023/01/24 01:40:45;;;;;;;17.50;11.77;;;;;;;1.70;89.01;103766.22;5041652;28;20037;-81
2023/01/24 01:43:17;;;;;;;17.23;12.05;;;;;;;1.67;88.48;103759.91;5051841;28;20056;-81
2023/01/24 01:45:45;;;;;;;17.77;12.82;;;;;;;1.67;88.72;103771.25;5042715;28;20033;-81
2023/01/24 01:48:13;;;;;;;16.55;11.20;;;;;;;1.68;89.42;103769.53;5045972;28;20029;-81
2023/01/24 01:50:44;;;;;;;17.40;12.07;;;;;;;1.65;88.81;103758.91;5033701;28;20091;-81
2023/01/24 01:53:11;;;;;;;17.02;11.55;;;;;;;1.66;89.28;103755.50;5044077;28;20397;-81
2023/01/24 01:55:40;;;;;;;17.67;11.48;;;;;;;1.67;89.39;103757.28;5030833;28;20033;-81
2023/01/24 01:58:07;;;;;;;18.02;12.02;;;;;;;1.68;89.29;103760.00;5050458;28;20064;-81
2023/01/24 02:00:33;;;;;;;20.48;12.25;;;;;;;1.68;89.03;103756.47;5037369;28;20032;-81
2023/01/24 02:05:53;;;;;;;18.23;12.38;;;;;;;1.65;88.88;103751.06;5037906;28;20045;-81
2023/01/24 02:08:21;;;;;;;19.33;12.45;;;;;;;1.66;88.89;103760.72;5050467;28;20037;-81
2023/01/24 02:13:43;;;;;;;19.83;12.13;;;;;;;1.63;89.11;103747.47;5044170;28;20047;-81
2023/01/24 02:16:11;;;;;;;22.20;13.57;;;;;;;1.64;88.69;103750.19;5030382;28;20091;-81
2023/01/24 02:18:40;;;;;;;20.13;13.05;;;;;;;1.66;89.07;103755.50;5043672;28;20392;-81
2023/01/24 02:21:15;;;;;;;18.33;11.98;;;;;;;1.65;89.10;103756.28;5035203;28;20475;-81
2023/01/24 02:24:03;;;;;;;18.13;11.73;;;;;;;1.65;89.67;103754.56;5038557;28;20033;-81
2023/01/24 02:26:29;;;;;;;16.48;11.55;;;;;;;1.60;89.30;103742.94;5038247;28;20424;-81
2023/01/24 02:29:02;;;;;;;19.58;13.40;;;;;;;1.63;89.73;103747.47;5051744;28;20037;-82
2023/01/24 02:31:28;;;;;;;21.40;12.93;;;;;;;1.64;89.71;103751.88;5035932;28;20491;-81
2023/01/24 02:33:54;;;;;;;19.95;13.35;;;;;;;1.64;90.10;103746.66;5039694;28;20200;-81
2023/01/24 02:36:32;;;;;;;21.05;14.40;;;;;;;1.61;89.50;103755.22;5045295;28;20022;-82
2023/01/24 02:39:10;;;;;;;18.25;11.95;;;;;;;1.65;89.67;103758.91;5030404;28;20527;-82
2023/01/24 02:41:45;;;;;;;20.30;13.45;;;;;;;1.61;89.42;103757.84;5043950;28;20067;-82
2023/01/24 02:44:19;;;;;;;20.52;13.25;;;;;;;1.59;89.63;103753.31;5029747;28;20026;-82
2023/01/24 02:46:45;;;;;;;20.33;13.60;;;;;;;1.61;89.44;103762.16;5034084;28;20034;-82
2023/01/24 02:49:11;;;;;;;20.92;13.52;;;;;;;1.58;89.23;103751.50;5041699;28;20496;-82
2023/01/24 02:54:42;;;;;;;22.58;13.82;;;;;;;1.61;89.55;103757.84;5035101;28;20059;-81
2023/01/24 02:59:52;;;;;;;19.08;12.07;;;;;;;1.58;89.36;103746.28;5031002;28;20187;-82
2023/01/24 03:02:17;;;;;;;20.75;12.35;;;;;;;1.55;89.66;103749.59;5049235;28;20112;-82
2023/01/24 03:04:43;;;;;;;21.55;13.23;;;;;;;1.56;89.23;103746.19;5053472;28;20044;-81
2023/01/24 03:07:11;;;;;;;20.20;13.82;;;;;;;1.56;89.77;103760.94;5047521;28;20388;-81
2023/01/24 03:09:46;;;;;;;23.42;13.05;;;;;;;1.55;89.62;103760.03;5029875;28;20376;-82
2023/01/24 03:34:48;;;;;;;20.88;14.25;;;;;;;1.50;90.04;103745.81;5046695;28;20176;-82
2023/01/24 03:40:08;;;;;;;22.15;12.98;;;;;;;1.50;90.51;103753.63;5045920;28;20136;-81
2023/01/24 03:42:34;;;;;;;23.15;14.00;;;;;;;1.49;90.78;103750.13;5062403;28;20031;-82
2023/01/24 03:45:01;;;;;;;23.45;15.70;;;;;;;1.48;90.90;103747.41;5033869;28;20021;-82
2023/01/24 03:47:27;;;;;;;21.55;14.25;;;;;;;1.44;90.26;103738.50;5020648;28;20041;-81
2023/01/24 03:52:36;;;;;;;22.85;15.02;;;;;;;1.47;90.95;103743.91;5052701;28;20498;-81
2023/01/24 03:55:07;;;;;;;19.92;13.63;;;;;;;1.46;90.43;103747.34;5047651;28;20020;-81
2023/01/24 03:57:32;;;;;;;20.17;13.73;;;;;;;1.45;90.99;103744.63;5052665;28;20037;-81
2023/01/24 04:00:03;;;;;;;21.70;14.48;;;;;;;1.44;90.92;103746.34;5037989;28;20127;-81
2023/01/24 04:02:31;;;;;;;21.17;13.98;;;;;;;1.42;90.73;103741.81;5054004;28;20037;-82
2023/01/24 04:05:12;;;;;;;20.70;14.88;;;;;;;1.44;91.16;103751.56;5038211;28;20041;-82
2023/01/24 04:07:38;;;;;;;;;;;;;;;1.46;90.07;103744.72;5052742;28;20576;-82
2023/01/24 04:10:06;;;;;;;22.98;13.75;;;;;;;1.42;90.19;103750.56;5038154;28;19919;-82
2023/01/24 04:12:41;;;;;;;23.10;14.07;;;;;;;1.40;90.08;103749.56;5042758;28;20041;-81
2023/01/24 04:15:07;;;;;;;23.17;14.48;;;;;;;1.37;90.81;103738.03;5047222;28;20087;-81
2023/01/24 04:17:34;;;;;;;22.58;14.45;;;;;;;1.38;90.21;103743.31;5032441;28;20033;-81
2023/01/24 04:20:00;;;;;;;22.10;13.90;;;;;;;1.36;90.52;103746.66;5015702;28;20033;-81
2023/01/24 04:22:26;;;;;;;19.70;13.07;;;;;;;1.35;91.52;103737.91;5037584;28;20152;-81
2023/01/24 04:24:54;;;;;;;21.48;14.63;;;;;;;1.34;90.52;103741.34;5035731;28;20039;-81
2023/01/24 04:27:22;;;;;;;22.35;14.63;;;;;;;1.34;90.52;103749.19;5051671;28;20098;-82
2023/01/24 04:30:19;;;;;;;20.77;13.57;;;;;;;1.33;91.50;103741.25;5043753;28;20052;-81
2023/01/24 04:32:49;;;;;;;19.75;13.75;;;;;;;1.34;91.47;103751.78;5066064;28;20075;-82
2023/01/24 04:35:25;;;;;;;18.00;12.43;;;;;;;1.33;90.96;103746.47;5060368;28;20037;-82
2023/01/24 04:37:57;;;;;;;21.85;14.18;;;;;;;1.31;91.62;103753.28;5022073;28;20727;-81
2023/01/24 04:40:35;;;;;;;19.95;13.95;;;;;;;1.33;91.38;103760.41;5051951;28;20040;-81
2023/01/24 04:43:00;;;;;;;18.60;12.82;;;;;;;1.31;91.36;103756.84;5048639;28;20127;-81
2023/01/24 04:45:26;;;;;;;22.73;14.18;;;;;;;1.28;91.39;103752.28;5044425;28;20147;-82
2023/01/24 04:47:54;;;;;;;21.25;13.73;;;;;;;1.27;91.32;103750.50;5035416;28;20056;-81
2023/01/24 04:50:21;;;;;;;19.88;13.60;;;;;;;1.26;91.66;103755.59;5045399;28;20026;-82
2023/01/24 04:52:47;;;;;;;20.05;13.65;;;;;;;1.26;91.43;103747.78;5028363;28;20373;-81
2023/01/24 04:55:12;;;;;;;18.95;12.63;;;;;;;1.27;91.50;103758.31;5018122;28;20047;-81
2023/01/24 04:57:38;;;;;;;22.38;13.38;;;;;;;1.25;91.28;103752.09;5051513;28;20052;-82
2023/01/24 05:00:07;;;;;;;19.95;13.07;;;;;;;1.24;91.60;103752.91;5051154;28;20475;-82
2023/01/24 05:02:35;;;;;;;21.85;13.65;;;;;;;1.20;91.71;103744.78;5044783;28;20034;-82
2023/01/24 05:05:01;;;;;;;18.48;13.00;;;;;;;1.24;91.63;103757.25;5033308;28;20510;-81
2023/01/24 05:07:26;;;;;;;19.77;13.85;;;;;;;1.21;91.45;103755.34;5034646;28;20029;-82
2023/01/24 05:10:00;;;;;;;19.55;13.13;;;;;;;1.23;91.36;103758.03;5042653;28;20029;-82
2023/01/24 05:12:27;;;;;;;22.20;13.88;;;;;;;1.24;91.27;103757.25;5022250;28;20033;-81
2023/01/24 05:14:55;;;;;;;20.60;13.75;;;;;;;1.22;91.51;103757.13;5037635;28;20227;-81
2023/01/24 05:17:20;;;;;;;19.67;13.45;;;;;;;1.22;91.80;103762.34;5046498;28;20186;-81
2023/01/24 05:19:46;;;;;;;19.50;13.18;;;;;;;1.22;91.59;103770.19;5042485;28;20083;-82
2023/01/24 05:22:12;;;;;;;19.77;13.43;;;;;;;1.18;91.78;103765.56;5000669;28;20041;-81
2023/01/24 05:24:41;;;;;;;22.02;13.02;;;;;;;1.17;91.91;103760.28;5019620;28;20033;-81
2023/01/24 05:27:08;;;;;;;20.55;12.73;;;;;;;1.18;91.97;103765.56;5042766;28;20060;-81
2023/01/24 05:29:35;;;;;;;18.20;12.02;;;;;;;1.16;92.12;103769.78;5052045;28;20047;-82
2023/01/24 05:32:03;;;;;;;20.58;13.55;;;;;;;1.16;92.23;103761.94;5050736;28;20037;-82
2023/01/24 05:34:29;;;;;;;20.77;14.15;;;;;;;1.18;91.94;103767.28;5040254;28;20033;-82
2023/01/24 05:36:54;;;;;;;19.02;12.50;;;;;;;1.18;92.32;103762.06;5028276;28;20082;-81
2023/01/24 05:39:20;;;;;;;19.85;13.35;;;;;;;1.19;92.28;103770.00;5027920;28;20484;-81
2023/01/24 05:41:47;;;;;;;19.42;12.95;;;;;;;1.18;92.14;103768.19;5030771;28;20484;-81
2023/01/24 05:44:15;;;;;;;21.20;13.07;;;;;;;1.16;91.81;103771.50;5034068;28;20032;-81
2023/01/24 05:46:41;;;;;;;21.38;12.20;;;;;;;1.19;91.96;103770.00;5036943;28;20388;-81
2023/01/24 05:49:14;;;;;;;19.90;13.98;;;;;;;1.18;92.20;103778.63;5030061;28;20038;-81
2023/01/24 05:51:41;;;;;;;20.05;12.77;;;;;;;1.18;92.16;103782.94;5033718;28;20037;-81
2023/01/24 05:54:06;;;;;;;22.90;14.85;;;;;;;1.18;92.43;103786.44;5030425;28;20091;-81
2023/01/24 05:57:10;;;;;;;21.67;13.70;;;;;;;1.19;92.45;103793.50;5038422;28;20041;-82
2023/01/24 05:59:54;;;;;;;22.58;14.95;;;;;;;1.18;92.45;103791.66;5031926;28;20139;-81
2023/01/24 06:02:20;;;;;;;21.38;14.07;;;;;;;1.17;92.04;103791.59;5031806;28;20057;-82
2023/01/24 06:04:45;;;;;;;18.15;12.60;;;;;;;1.16;92.38;103795.88;5023638;28;20067;-82
2023/01/24 06:07:11;;;;;;;20.98;14.02;;;;;;;1.15;92.06;103796.69;5031810;28;20052;-81
2023/01/24 06:09:39;;;;;;;22.52;15.02;;;;;;;1.15;92.07;103801.03;5015202;28;20507;-81
2023/01/24 06:12:07;;;;;;;20.83;13.77;;;;;;;1.14;92.75;103807.03;5027940;28;20033;-82
2023/01/24 06:14:33;;;;;;;21.67;14.50;;;;;;;1.12;92.96;103796.50;5033684;28;20116;-82
2023/01/24 06:16:58;;;;;;;21.25;14.63;;;;;;;1.13;92.69;103806.13;5034065;28;20044;-82
2023/01/24 06:19:24;;;;;;;23.90;15.38;;;;;;;1.11;92.23;103797.28;5036910;28;20037;-81
2023/01/24 06:21:59;;;;;;;20.85;13.70;;;;;;;1.13;92.25;103802.63;5046495;28;20037;-82
2023/01/24 06:24:31;;;;;;;20.05;13.70;;;;;;;1.13;91.82;103802.63;5050488;28;20395;-82
2023/01/24 06:27:20;;;;;;;20.85;14.27;;;;;;;1.11;92.60;103805.13;5051392;28;20081;-81
2023/01/24 06:29:45;;;;;;;19.98;13.15;;;;;;;1.09;92.25;103809.38;5050460;28;20087;-81
2023/01/24 06:32:58;;;;;;;22.25;15.10;;;;;;;1.08;92.76;103802.31;5022336;28;20021;-81
2023/01/24 06:36:05;;;;;;;23.55;15.02;;;;;;;1.08;92.88;103811.06;5022579;28;20072;-81
2023/01/24 06:38:31;;;;;;;21.45;13.85;;;;;;;1.06;92.29;103806.53;5027751;28;20033;-81
2023/01/24 06:40:59;;;;;;;22.67;14.23;;;;;;;1.10;92.77;103807.66;5037752;28;20040;-81
2023/01/24 06:43:25;;;;;;;20.17;13.63;;;;;;;1.12;92.62;103812.19;5045217;28;20507;-81
2023/01/24 06:45:50;;;;;;;20.23;13.82;;;;;;;1.13;92.47;103821.78;5034021;28;20029;-80
2023/01/24 06:48:16;;;;;;;22.73;14.93;;;;;;;1.11;93.23;103812.06;5038809;28;20170;-80
2023/01/24 06:50:42;;;;;;;22.52;14.60;;;;;;;1.12;92.84;103819.09;5044737;28;20044;-80
2023/01/24 06:53:08;;;;;;;21.92;14.68;;;;;;;1.12;92.40;103821.72;5020592;28;20159;-81
2023/01/24 06:55:34;;;;;;;24.67;14.70;;;;;;;1.11;92.66;103815.56;5024448;28;20158;-81
2023/01/24 06:58:01;;;;;;;22.85;15.02;;;;;;;1.12;93.31;103821.72;5033690;28;20029;-81
2023/01/24 07:00:31;;;;;;;23.92;15.65;;;;;;;1.12;92.94;103813.88;5032769;28;20233;-81
2023/01/24 07:03:07;;;;;;;22.38;14.93;;;;;;;1.08;92.51;103821.50;5038228;28;20037;-81
2023/01/24 07:05:35;;;;;;;22.95;15.40;;;;;;;1.08;92.64;103816.28;5043706;28;20036;-82
2023/01/24 07:08:00;;;;;;;22.90;15.40;;;;;;;1.05;93.02;103810.88;5038653;28;20030;-80
2023/01/24 07:10:26;;;;;;;26.13;17.10;;;;;;;1.07;93.01;103819.72;5035005;28;20447;-80
2023/01/24 07:12:52;;;;;;;24.55;16.35;;;;;;;1.04;92.57;103816.91;5031960;28;20119;-80
2023/01/24 07:15:17;;;;;;;21.10;14.40;;;;;;;1.06;93.07;103827.41;5035124;28;20029;-80
2023/01/24 07:17:44;;;;;;;23.55;15.68;;;;;;;1.06;92.97;103833.56;5034677;28;20033;-80
2023/01/24 07:20:11;;;;;;;23.73;16.45;;;;;;;1.08;93.01;103844.97;5032317;28;20039;-79
2023/01/24 07:22:38;;;;;;;24.38;14.95;;;;;;;1.06;92.69;103845.69;5050257;28;20034;-79
2023/01/24 07:25:05;;;;;;;25.33;16.20;;;;;;;1.06;93.24;103850.91;5054290;28;20032;-79
2023/01/24 07:27:31;;;;;;;24.52;16.67;;;;;;;1.07;93.05;103858.84;5036200;28;20040;-79
2023/01/24 07:29:56;;;;;;;25.00;16.02;;;;;;;1.05;93.33;103857.84;5052970;28;20364;-79
2023/01/24 07:32:22;;;;;;;22.70;15.07;;;;;;;1.10;92.78;103862.47;5023412;28;20045;-80
2023/01/24 07:34:47;;;;;;;23.77;16.33;;;;;;;1.07;92.87;103861.47;5053329;28;20081;-80
2023/01/24 07:37:13;;;;;;;25.50;16.60;;;;;;;1.04;92.25;103853.44;5036795;28;20037;-79
2023/01/24 07:39:38;;;;;;;22.27;15.27;;;;;;;1.07;92.57;103858.84;5038996;28;20025;-79
2023/01/24 07:42:04;;;;;;;22.02;14.82;;;;;;;1.06;92.34;103858.75;5043993;28;20045;-79
2023/01/24 07:44:29;;;;;;;22.75;14.88;;;;;;;1.05;92.36;103863.06;5043749;28;20108;-79
2023/01/24 07:46:55;;;;;;;24.13;15.60;;;;;;;1.04;92.79;103863.88;5038108;28;20396;-79
2023/01/24 07:49:20;;;;;;;23.38;15.77;;;;;;;1.04;92.89;103868.19;5046115;28;20040;-79
2023/01/24 07:51:48;;;;;;;24.52;15.85;;;;;;;1.01;92.64;103860.16;5040649;28;20031;-80
2023/01/24 07:54:14;;;;;;;23.90;16.20;;;;;;;1.04;93.06;103868.19;5025988;28;20060;-80
2023/01/24 07:56:39;;;;;;;24.08;15.18;;;;;;;1.04;92.67;103865.59;5058448;28;20037;-80
2023/01/24 07:59:05;;;;;;;30.98;16.08;;;;;;;1.04;92.77;103874.31;5072350;28;20036;-80
2023/01/24 08:01:31;;;;;;;25.95;16.55;;;;;;;1.00;93.35;103863.56;5049952;28;20033;-79
2023/01/24 08:03:57;;;;;;;24.08;16.30;;;;;;;1.02;93.56;103873.31;5035099;28;20752;-79
2023/01/24 08:06:24;;;;;;;25.00;16.35;;;;;;;1.06;93.40;103880.53;5053437;28;20041;-80
2023/01/24 08:08:49;;;;;;;24.45;17.08;;;;;;;1.06;93.41;103879.63;5047489;28;20045;-79
2023/01/24 08:11:17;;;;;;;29.70;19.17;;;;;;;1.04;93.59;103879.53;5044069;28;20122;-79
2023/01/24 08:13:46;;;;;;;27.02;16.17;;;;;;;1.05;93.09;103883.03;5053884;28;20092;-79
2023/01/24 08:16:12;;;;;;;26.17;17.33;;;;;;;1.04;92.98;103873.41;5053720;28;20033;-80
2023/01/24 08:18:39;;;;;;;26.50;16.88;;;;;;;1.01;92.85;103873.19;5038343;28;20132;-79
2023/01/24 08:21:05;;;;;;;25.20;16.13;;;;;;;0.99;93.33;103875.72;5047809;28;20041;-80
2023/01/24 08:23:30;;;;;;;29.70;17.25;;;;;;;0.97;93.32;103876.44;5042899;28;20107;-79
2023/01/24 08:26:00;;;;;;;23.13;15.40;;;;;;;0.97;93.25;103881.66;5035433;28;20125;-80
2023/01/24 08:28:26;;;;;;;24.65;16.23;;;;;;;0.95;92.89;103878.03;5043362;28;20057;-79
2023/01/24 08:30:52;;;;;;;24.10;15.77;;;;;;;0.96;93.24;103885.03;5046207;28;20054;-80
2023/01/24 08:33:18;;;;;;;28.58;17.92;;;;;;;0.97;93.15;103886.88;5039426;28;20127;-79
2023/01/24 08:35:45;;;;;;;26.25;15.70;;;;;;;0.94;93.03;103884.94;5052068;28;20454;-80
2023/01/24 08:38:15;;;;;;;25.85;16.65;;;;;;;0.97;93.48;103889.47;5053480;28;20047;-80
2023/01/24 08:40:41;;;;;;;25.67;15.40;;;;;;;0.98;93.75;103892.16;5053292;28;20439;-79
2023/01/24 08:43:06;;;;;;;26.95;16.92;;;;;;;0.97;93.39;103900.81;5039216;28;20502;-79
2023/01/24 08:45:32;;;;;;;24.23;15.35;;;;;;;1.03;93.63;103900.31;5036848;28;20025;-80
2023/01/24 08:47:57;;;;;;;23.83;16.00;;;;;;;1.03;92.92;103906.41;5050147;28;20400;-79
2023/01/24 08:50:23;;;;;;;23.13;14.90;;;;;;;1.00;92.20;103911.44;5038385;28;20431;-80
2023/01/24 08:52:49;;;;;;;25.50;15.43;;;;;;;0.98;92.38;103909.53;5038311;28;20025;-79
2023/01/24 08:55:15;;;;;;;29.65;17.48;;;;;;;0.95;92.68;103906.72;5052912;28;20260;-79
2023/01/24 08:57:40;;;;;;;28.58;17.23;;;;;;;0.94;92.08;103908.44;5051807;28;20518;-80
2023/01/24 09:00:07;;;;;;;27.15;15.60;;;;;;;0.94;92.84;103910.13;5039317;28;20024;-80
2023/01/24 09:02:36;;;;;;;23.67;14.57;;;;;;;0.95;92.83;103909.34;5048510;28;20499;-79
2023/01/24 09:05:03;;;;;;;19.98;13.43;;;;;;;0.97;92.79;103912.97;5021680;28;20116;-80
2023/01/24 09:07:29;;;;;;;28.98;16.33;;;;;;;0.92;92.32;103910.03;5051956;28;20056;-80
2023/01/24 09:09:54;;;;;;;27.42;16.63;;;;;;;0.93;92.57;103908.31;5051159;28;20440;-79
2023/01/24 09:12:20;;;;;;;25.48;15.80;;;;;;;0.94;92.48;103916.28;5039128;28;20087;-80
2023/01/24 09:14:45;;;;;;;26.40;15.45;;;;;;;0.94;92.35;103912.72;5051442;28;20442;-80
2023/01/24 09:17:11;;;;;;;23.52;15.60;;;;;;;0.95;92.42;103911.94;5052761;28;20076;-80
2023/01/24 09:19:36;;;;;;;26.40;15.55;;;;;;;0.91;92.38;103921.25;5042319;28;20017;-79
2023/01/24 09:22:02;;;;;;;25.85;15.45;;;;;;;0.92;92.97;103917.88;5049152;28;20090;-79
2023/01/24 09:24:27;;;;;;;23.80;15.45;;;;;;;0.93;93.01;103911.84;5004308;28;20033;-79
2023/01/24 09:26:53;;;;;;;25.13;14.75;;;;;;;0.96;93.07;103918.97;5024779;28;20044;-80
2023/01/24 09:29:19;;;;;;;30.15;16.70;;;;;;;0.98;92.73;103918.25;5048469;28;20057;-80
2023/01/24 09:31:47;;;;;;;25.52;15.00;;;;;;;1.03;93.39;103923.78;5044243;28;20095;-79
2023/01/24 09:34:13;;;;;;;26.73;16.30;;;;;;;1.03;93.11;103914.25;5043450;28;20033;-79
2023/01/24 09:36:38;;;;;;;24.92;15.82;;;;;;;1.05;93.00;103909.13;5050991;28;20037;-79
2023/01/24 09:39:04;;;;;;;29.05;16.70;;;;;;;1.10;92.95;103925.13;5034836;28;20021;-79
2023/01/24 09:41:43;;;;;;;24.60;15.77;;;;;;;1.13;93.14;103920.97;5052160;28;20037;-79
2023/01/24 09:44:15;;;;;;;26.35;16.67;;;;;;;1.14;92.54;103917.59;5040294;28;20108;-79
2023/01/24 09:46:45;;;;;;;24.92;15.65;;;;;;;1.17;92.70;103917.78;5040355;28;20372;-79
2023/01/24 09:49:14;;;;;;;25.50;16.20;;;;;;;1.15;92.42;103927.22;5040473;28;20035;-79
2023/01/24 09:51:52;;;;;;;27.80;17.15;;;;;;;1.15;92.81;103929.81;5048332;28;20263;-79
2023/01/24 09:54:51;;;;;;;30.48;15.88;;;;;;;1.17;92.79;103927.34;5051516;28;20037;-79
2023/01/24 09:57:27;;;;;;;24.58;15.20;;;;;;;1.19;92.75;103933.56;5030847;28;20041;-79
2023/01/24 09:59:57;;;;;;;27.13;14.63;;;;;;;1.20;93.19;103931.03;5046628;28;20041;-78
2023/01/24 10:02:25;;;;;;;26.55;16.10;;;;;;;1.21;92.96;103935.47;5052015;28;20040;-79
2023/01/24 10:04:50;;;;;;;27.17;16.23;;;;;;;1.22;92.22;103934.66;5037819;28;20025;-79
2023/01/24 10:07:41;;;;;;;25.23;15.57;;;;;;;1.24;92.87;103934.78;5050675;28;20052;-79
2023/01/24 10:10:28;;;;;;;25.42;15.23;;;;;;;1.24;91.96;103940.88;5053342;28;20051;-78
2023/01/24 10:13:04;;;;;;;24.95;15.65;;;;;;;1.24;92.39;103938.28;5055021;28;20041;-79
2023/01/24 10:15:37;;;;;;;24.85;16.40;;;;;;;1.23;92.18;103931.22;5051573;28;20052;-79
2023/01/24 10:18:14;;;;;;;25.75;15.10;;;;;;;1.25;92.22;103937.47;5047194;28;20040;-79
2023/01/24 10:21:08;;;;;;;25.33;14.50;;;;;;;1.26;92.55;103936.69;5054352;28;20395;-79
2023/01/24 10:23:39;;;;;;;23.98;14.88;;;;;;;1.26;92.06;103933.13;5045306;28;20427;-79
2023/01/24 10:26:22;;;;;;;23.58;14.50;;;;;;;1.26;91.30;103943.56;5049550;28;20072;-79
2023/01/24 10:28:54;;;;;;;25.00;15.27;;;;;;;1.24;91.30;103943.50;5047497;28;20391;-79
2023/01/24 10:31:24;;;;;;;27.08;15.15;;;;;;;1.24;91.59;103948.72;5050845;28;20033;-79
2023/01/24 10:33:57;;;;;;;24.65;15.05;;;;;;;1.23;91.33;103938.16;5046516;28;20120;-79
2023/01/24 10:36:34;;;;;;;23.95;14.70;;;;;;;1.26;91.44;103944.50;5053925;28;20021;-79
2023/01/24 10:39:00;;;;;;;20.88;12.65;;;;;;;1.28;91.25;103942.88;5055720;28;20365;-79
2023/01/24 10:41:29;;;;;;;23.10;14.35;;;;;;;1.26;90.67;103938.34;5039961;28;20032;-79
2023/01/24 10:44:15;;;;;;;20.55;12.52;;;;;;;1.28;91.12;103936.75;5045331;28;20107;-79
2023/01/24 10:47:02;;;;;;;21.00;13.60;;;;;;;1.28;91.39;103934.16;5045387;28;20033;-80
2023/01/24 10:49:29;;;;;;;21.15;13.43;;;;;;;1.29;90.87;103934.25;5054577;28;20451;-79
2023/01/24 10:52:17;;;;;;;25.00;13.10;;;;;;;1.29;90.24;103930.75;5048735;28;20427;-80
2023/01/24 10:55:00;;;;;;;21.20;14.20;;;;;;;1.28;89.94;103934.16;5033530;28;20386;-79
2023/01/24 10:57:40;;;;;;;21.67;13.00;;;;;;;1.31;90.34;103938.66;5034373;28;20045;-79
2023/01/24 11:00:18;;;;;;;21.13;13.20;;;;;;;1.33;90.34;103931.84;5033636;28;20060;-79
2023/01/24 11:02:52;;;;;;;20.55;14.05;;;;;;;1.33;90.35;103937.97;5034972;28;20041;-79
2023/01/24 11:05:18;;;;;;;22.13;12.55;;;;;;;1.33;90.18;103934.44;5035001;28;20373;-79
2023/01/24 11:07:59;;;;;;;25.08;13.38;;;;;;;1.34;90.37;103928.44;5033086;28;20477;-79
2023/01/24 11:10:30;;;;;;;21.05;12.85;;;;;;;1.34;89.89;103923.22;5034524;28;20029;-79
2023/01/24 11:12:58;;;;;;;20.25;13.23;;;;;;;1.39;89.47;103919.19;5034908;28;20040;-79
2023/01/24 11:15:28;;;;;;;21.20;13.15;;;;;;;1.37;89.30;103919.09;5044494;28;20359;-79
2023/01/24 11:17:59;;;;;;;20.85;12.07;;;;;;;1.37;89.96;103913.88;5054479;28;20033;-80
2023/01/24 11:20:29;;;;;;;;;;;;;;;1.42;90.37;103909.84;5046364;28;20388;-79
2023/01/24 11:23:08;;;;;;;19.60;12.05;;;;;;;1.42;89.37;103916.78;5044508;28;20009;-79
2023/01/24 11:25:33;;;;;;;20.15;12.68;;;;;;;1.43;90.03;103905.53;5046261;28;20020;-79
2023/01/24 11:28:00;;;;;;;19.00;12.48;;;;;;;1.46;89.20;103904.03;5043133;28;20126;-79
2023/01/24 11:30:28;;;;;;;19.77;12.50;;;;;;;1.45;89.33;103904.81;5044646;28;20059;-80
2023/01/24 11:33:12;;;;;;;22.67;13.07;;;;;;;1.49;88.83;103901.59;5044651;28;20037;-79
2023/01/24 11:35:44;;;;;;;18.80;11.57;;;;;;;1.46;88.60;103897.91;5051204;28;20092;-79
2023/01/24 11:38:31;;;;;;;18.60;11.85;;;;;;;1.47;88.92;103898.00;5066105;28;20802;-80
2023/01/24 11:41:02;;;;;;;18.48;12.15;;;;;;;1.48;89.20;103899.81;5056918;28;20128;-80
2023/01/24 11:43:44;;;;;;;18.52;11.25;;;;;;;1.48;88.45;103896.28;5043399;28;20047;-80
2023/01/24 11:46:41;;;;;;;17.73;11.05;;;;;;;1.49;89.28;103893.78;5044071;28;20389;-80
2023/01/24 11:49:09;;;;;;;20.20;11.57;;;;;;;1.47;88.61;103895.38;5042356;28;20043;-80
2023/01/24 11:51:35;;;;;;;17.67;11.35;;;;;;;1.49;88.07;103892.88;5043554;28;20060;-79
2023/01/24 11:54:18;;;;;;;17.67;11.43;;;;;;;1.49;88.34;103882.44;5043326;28;20704;-79
2023/01/24 11:56:55;;;;;;;18.83;11.55;;;;;;;1.47;88.29;103881.41;5043084;28;20167;-79
2023/01/24 11:59:54;;;;;;;18.10;11.13;;;;;;;1.49;87.91;103885.94;5044625;28;20124;-79
2023/01/24 12:02:34;;;;;;;17.92;11.30;;;;;;;1.50;87.95;103884.22;5043655;28;20026;-80
2023/01/24 12:05:05;;;;;;;19.83;11.68;;;;;;;1.48;87.83;103876.31;5043275;28;20114;-79
2023/01/24 12:08:02;;;;;;;15.68;10.95;;;;;;;1.47;88.27;103877.09;5043050;28;20388;-79